Time;durP1;ratioP1;P1;durP2;ratioP2;P2;SDS_P1;SDS_P2;PMS_P1;PMS_P2;Temp;Humidity;BMP_temperature;BMP_pressure;BME280_temperature;BME280_humidity;BME280_pressure;Samples;Min_cycle;Max_cycle;Signal;HPM_P1;HPM_P2
2021/08/26 00:00:07;;;;;;;12.18;7.25;;;;;;;;;;5069160;28;20032;-75
2021/08/26 00:08:03;;;;;;;14.73;6.88;;;;;;;;;;5070070;28;20993;-76
2021/08/26 00:10:30;;;;;;;12.50;6.88;;;;;;;;;;5070246;28;20498;-75
2021/08/26 00:12:56;;;;;;;11.73;6.93;;;;;;;;;;5067522;28;20023;-75
2021/08/26 00:15:22;;;;;;;11.55;6.95;;;;;;;;;;5069226;28;20032;-75
2021/08/26 00:17:49;;;;;;;13.20;7.47;;;;;;;;;;5069766;28;20027;-75
2021/08/26 00:20:15;;;;;;;12.50;7.13;;;;;;;;;;5068587;28;20031;-75
2021/08/26 00:22:41;;;;;;;13.35;7.25;;;;;;;;;;5069985;28;20028;-75
2021/08/26 00:25:07;;;;;;;13.13;7.75;;;;;;;;;;5070756;28;20024;-75
2021/08/26 00:27:34;;;;;;;13.38;7.32;;;;;;;;;;5070094;28;20112;-75
2021/08/26 00:30:00;;;;;;;12.77;7.30;;;;;;;;;;5069410;28;20021;-75
2021/08/26 00:32:26;;;;;;;12.05;7.20;;;;;;;;;;5069627;28;20031;-75
2021/08/26 00:34:52;;;;;;;13.98;6.93;;;;;;;;;;5070150;28;20025;-75
2021/08/26 00:37:18;;;;;;;13.90;7.50;;;;;;;;;;5069360;28;20056;-75
2021/08/26 00:39:44;;;;;;;12.40;7.10;;;;;;;;;;5069601;28;20024;-75
2021/08/26 00:42:11;;;;;;;13.38;7.07;;;;;;;;;;5068158;28;20030;-74
2021/08/26 00:44:38;;;;;;;15.15;7.57;;;;;;;;;;5068930;28;20048;-75
2021/08/26 00:47:04;;;;;;;13.18;7.20;;;;;;;;;;5069204;28;20025;-76
2021/08/26 00:49:30;;;;;;;13.27;7.40;;;;;;;;;;5067517;28;20111;-75
2021/08/26 00:51:57;;;;;;;12.52;7.10;;;;;;;;;;5069616;28;20021;-76
2021/08/26 00:54:23;;;;;;;13.40;6.82;;;;;;;;;;5067676;28;20071;-74
2021/08/26 00:56:49;;;;;;;22.42;7.78;;;;;;;;;;5067991;28;20104;-74
2021/08/26 00:59:16;;;;;;;12.82;7.38;;;;;;;;;;5068112;28;20025;-74
2021/08/26 01:01:43;;;;;;;14.45;7.32;;;;;;;;;;5082566;28;20069;-74
2021/08/26 01:04:16;;;;;;;14.32;7.43;;;;;;;;;;5068939;28;20024;-75
2021/08/26 01:07:01;;;;;;;16.70;7.65;;;;;;;;;;5084427;28;20031;-75
2021/08/26 01:09:29;;;;;;;12.65;6.90;;;;;;;;;;5082677;28;20024;-74
2021/08/26 01:11:57;;;;;;;14.05;7.22;;;;;;;;;;5068803;28;20410;-73
2021/08/26 01:14:23;;;;;;;12.88;7.25;;;;;;;;;;5068922;28;20740;-72
2021/08/26 01:16:49;;;;;;;13.60;7.53;;;;;;;;;;5068625;28;20028;-75
2021/08/26 01:19:15;;;;;;;13.27;6.57;;;;;;;;;;5067492;28;20020;-75
2021/08/26 01:21:41;;;;;;;13.35;6.88;;;;;;;;;;5068907;28;20089;-74
2021/08/26 01:24:09;;;;;;;12.27;6.90;;;;;;;;;;5068879;28;20527;-74
2021/08/26 01:26:37;;;;;;;12.30;6.82;;;;;;;;;;5069018;28;20522;-74
2021/08/26 01:29:04;;;;;;;11.05;6.65;;;;;;;;;;5068789;28;20055;-74
2021/08/26 01:31:31;;;;;;;12.73;6.85;;;;;;;;;;5069608;28;20029;-74
2021/08/26 01:33:58;;;;;;;11.82;6.85;;;;;;;;;;5069186;28;20107;-75
2021/08/26 01:36:25;;;;;;;11.77;6.68;;;;;;;;;;5068775;28;20115;-74
2021/08/26 01:38:51;;;;;;;11.77;6.45;;;;;;;;;;5066955;28;20031;-75
2021/08/26 01:41:18;;;;;;;12.52;7.07;;;;;;;;;;5068979;28;20028;-74
2021/08/26 01:43:48;;;;;;;10.40;6.65;;;;;;;;;;5069110;28;20056;-74
2021/08/26 01:46:15;;;;;;;13.00;6.93;;;;;;;;;;5069308;28;20017;-74
2021/08/26 01:48:41;;;;;;;10.93;6.43;;;;;;;;;;5068675;28;20476;-74
2021/08/26 01:51:08;;;;;;;12.10;6.70;;;;;;;;;;5067717;28;20029;-74
2021/08/26 01:53:34;;;;;;;13.20;6.85;;;;;;;;;;5068322;28;20076;-74
2021/08/26 01:56:00;;;;;;;11.57;6.72;;;;;;;;;;5069034;28;20445;-74
2021/08/26 01:58:26;;;;;;;10.57;6.03;;;;;;;;;;5068978;28;20078;-74
2021/08/26 02:00:52;;;;;;;15.40;6.50;;;;;;;;;;5068401;28;20036;-75
2021/08/26 02:03:18;;;;;;;14.75;7.07;;;;;;;;;;5067212;28;20112;-76
2021/08/26 02:05:44;;;;;;;13.60;6.57;;;;;;;;;;5066956;28;20044;-76
2021/08/26 02:08:10;;;;;;;13.75;6.47;;;;;;;;;;5069215;28;20021;-76
2021/08/26 02:10:36;;;;;;;13.60;7.45;;;;;;;;;;5068733;28;20524;-76
2021/08/26 02:13:02;;;;;;;12.30;6.82;;;;;;;;;;5068596;28;20048;-75
2021/08/26 02:15:28;;;;;;;11.18;6.45;;;;;;;;;;5068205;28;20040;-76
2021/08/26 02:17:54;;;;;;;12.90;7.38;;;;;;;;;;5066784;28;20510;-75
2021/08/26 02:20:21;;;;;;;11.52;6.18;;;;;;;;;;5069240;28;20031;-75
2021/08/26 02:22:47;;;;;;;12.10;6.43;;;;;;;;;;5068634;28;20025;-75
2021/08/26 02:25:13;;;;;;;13.68;6.93;;;;;;;;;;5066677;28;20024;-75
2021/08/26 02:27:39;;;;;;;11.95;6.40;;;;;;;;;;5069088;28;20605;-74
2021/08/26 02:30:06;;;;;;;14.30;6.43;;;;;;;;;;5072304;28;20027;-75
2021/08/26 02:32:32;;;;;;;15.32;6.25;;;;;;;;;;5061461;28;20020;-74
2021/08/26 02:34:59;;;;;;;12.57;6.60;;;;;;;;;;5078441;28;20024;-74
2021/08/26 02:37:26;;;;;;;12.77;6.93;;;;;;;;;;5070219;28;20048;-74
2021/08/26 02:39:52;;;;;;;12.32;6.40;;;;;;;;;;5071934;28;20408;-74
2021/08/26 02:42:18;;;;;;;13.63;6.38;;;;;;;;;;5072325;28;20024;-74
2021/08/26 02:44:44;;;;;;;11.38;6.30;;;;;;;;;;5072182;28;20100;-74
2021/08/26 02:47:10;;;;;;;11.63;6.60;;;;;;;;;;5071154;28;20033;-75
2021/08/26 02:49:37;;;;;;;13.40;6.18;;;;;;;;;;5066974;28;20039;-76
2021/08/26 02:52:04;;;;;;;11.88;6.65;;;;;;;;;;5070234;28;20112;-76
2021/08/26 02:54:30;;;;;;;10.85;5.75;;;;;;;;;;5081760;28;20128;-74
2021/08/26 02:56:56;;;;;;;14.18;6.45;;;;;;;;;;5071796;28;20031;-74
2021/08/26 02:59:22;;;;;;;13.73;5.93;;;;;;;;;;5071503;28;20025;-74
2021/08/26 03:01:48;;;;;;;15.82;6.57;;;;;;;;;;5071634;28;20037;-74
2021/08/26 03:04:14;;;;;;;13.32;7.00;;;;;;;;;;5071568;28;20058;-75
2021/08/26 03:06:40;;;;;;;12.73;6.72;;;;;;;;;;5072274;28;20021;-76
2021/08/26 03:09:06;;;;;;;11.32;6.22;;;;;;;;;;5077771;28;20024;-76
2021/08/26 03:11:32;;;;;;;11.00;6.20;;;;;;;;;;5071014;28;20025;-75
2021/08/26 03:13:58;;;;;;;11.75;6.40;;;;;;;;;;5069694;28;20028;-76
2021/08/26 03:16:24;;;;;;;11.25;6.38;;;;;;;;;;5069534;28;20044;-76
2021/08/26 03:18:50;;;;;;;13.52;6.60;;;;;;;;;;5071982;28;20056;-76
2021/08/26 03:21:16;;;;;;;11.68;5.55;;;;;;;;;;5071144;28;20051;-76
2021/08/26 03:23:42;;;;;;;12.32;6.28;;;;;;;;;;5069722;28;20025;-76
2021/08/26 03:26:08;;;;;;;10.82;6.03;;;;;;;;;;5071260;28;20115;-75
2021/08/26 03:28:34;;;;;;;10.40;5.60;;;;;;;;;;5068354;28;20080;-75
2021/08/26 03:31:00;;;;;;;10.82;6.03;;;;;;;;;;5070095;28;20024;-75
2021/08/26 03:33:26;;;;;;;10.38;5.63;;;;;;;;;;5069670;28;20021;-75
2021/08/26 03:35:53;;;;;;;12.57;6.03;;;;;;;;;;5070893;28;20160;-75
2021/08/26 03:38:19;;;;;;;11.18;5.63;;;;;;;;;;5069061;28;20028;-76
2021/08/26 03:40:45;;;;;;;11.68;6.22;;;;;;;;;;5071429;28;20097;-75
2021/08/26 03:43:11;;;;;;;11.52;6.18;;;;;;;;;;5070129;28;20051;-75
2021/08/26 03:45:37;;;;;;;9.20;5.53;;;;;;;;;;5070506;28;20013;-75
2021/08/26 03:48:03;;;;;;;12.27;5.35;;;;;;;;;;5070459;28;20024;-76
2021/08/26 03:50:29;;;;;;;11.40;6.07;;;;;;;;;;5070332;28;20028;-75
2021/08/26 03:52:56;;;;;;;10.77;5.88;;;;;;;;;;5069514;28;20040;-75
2021/08/26 03:55:22;;;;;;;10.50;5.88;;;;;;;;;;5070386;28;20028;-75
2021/08/26 03:57:48;;;;;;;9.85;5.20;;;;;;;;;;5070270;28;22301;-75
2021/08/26 04:00:14;;;;;;;11.63;5.85;;;;;;;;;;5068761;28;20024;-75
2021/08/26 04:02:40;;;;;;;13.23;6.70;;;;;;;;;;5066617;28;20029;-76
2021/08/26 04:05:06;;;;;;;11.35;5.47;;;;;;;;;;5085584;28;20035;-75
2021/08/26 04:07:32;;;;;;;10.05;5.53;;;;;;;;;;5070187;28;20099;-76
2021/08/26 04:09:59;;;;;;;11.63;5.75;;;;;;;;;;5068802;28;20480;-76
2021/08/26 04:12:27;;;;;;;10.55;5.75;;;;;;;;;;5070239;28;20029;-76
2021/08/26 04:14:53;;;;;;;9.82;5.13;;;;;;;;;;5067490;28;20028;-76
2021/08/26 04:17:19;;;;;;;10.95;5.18;;;;;;;;;;5085288;28;20068;-75
2021/08/26 04:19:46;;;;;;;9.70;5.20;;;;;;;;;;5068384;28;20012;-75
2021/08/26 04:22:12;;;;;;;10.68;5.28;;;;;;;;;;5069741;28;20029;-75
2021/08/26 04:24:38;;;;;;;10.77;5.65;;;;;;;;;;5069947;28;20020;-76
2021/08/26 04:27:04;;;;;;;12.02;5.00;;;;;;;;;;5070588;28;20502;-75
2021/08/26 04:29:30;;;;;;;15.82;6.30;;;;;;;;;;5076990;28;20028;-74
2021/08/26 04:31:56;;;;;;;12.88;5.35;;;;;;;;;;5084951;28;20112;-74
2021/08/26 04:34:23;;;;;;;12.95;5.70;;;;;;;;;;5069483;28;20021;-74
2021/08/26 04:36:49;;;;;;;10.98;5.50;;;;;;;;;;5068210;28;20036;-74
2021/08/26 04:39:15;;;;;;;9.05;4.70;;;;;;;;;;5069196;28;20046;-74
2021/08/26 04:41:41;;;;;;;9.75;5.18;;;;;;;;;;5069316;28;20021;-75
2021/08/26 04:44:08;;;;;;;9.05;5.10;;;;;;;;;;5069334;28;20020;-73
2021/08/26 04:46:34;;;;;;;12.75;5.22;;;;;;;;;;5065533;28;20029;-75
2021/08/26 04:49:00;;;;;;;12.95;5.85;;;;;;;;;;5066787;28;20024;-77
2021/08/26 04:51:26;;;;;;;8.02;4.15;;;;;;;;;;5067949;28;20016;-76
2021/08/26 04:53:52;;;;;;;10.95;5.15;;;;;;;;;;5075485;28;20048;-75
2021/08/26 04:56:18;;;;;;;11.30;5.05;;;;;;;;;;5067932;28;20120;-75
2021/08/26 04:58:44;;;;;;;12.50;5.32;;;;;;;;;;5069463;28;20483;-75
2021/08/26 05:01:10;;;;;;;10.30;4.78;;;;;;;;;;5067222;28;20035;-75
2021/08/26 05:03:36;;;;;;;9.43;5.03;;;;;;;;;;5069590;28;20021;-75
2021/08/26 05:06:03;;;;;;;12.75;5.95;;;;;;;;;;5069139;28;20100;-75
2021/08/26 05:08:30;;;;;;;12.57;5.35;;;;;;;;;;5068871;28;20032;-74
2021/08/26 05:10:56;;;;;;;12.30;5.07;;;;;;;;;;5068857;28;20558;-74
2021/08/26 05:13:22;;;;;;;11.65;5.28;;;;;;;;;;5069741;28;20027;-74
2021/08/26 05:15:48;;;;;;;10.43;4.78;;;;;;;;;;5068958;28;20120;-74
2021/08/26 05:18:14;;;;;;;9.60;4.63;;;;;;;;;;5068235;28;20071;-74
2021/08/26 05:20:40;;;;;;;12.20;5.47;;;;;;;;;;5068769;28;20044;-74
2021/08/26 05:23:06;;;;;;;9.95;4.88;;;;;;;;;;5067501;28;20027;-74
2021/08/26 05:25:33;;;;;;;8.77;4.60;;;;;;;;;;5069630;28;20116;-76
2021/08/26 05:28:00;;;;;;;9.48;4.45;;;;;;;;;;5069126;28;20021;-76
2021/08/26 05:30:26;;;;;;;8.88;4.78;;;;;;;;;;5068608;28;20084;-76
2021/08/26 05:32:52;;;;;;;13.10;5.40;;;;;;;;;;5068686;28;20017;-77
2021/08/26 05:35:18;;;;;;;9.65;4.63;;;;;;;;;;5068697;28;20017;-76
2021/08/26 05:37:44;;;;;;;9.40;5.03;;;;;;;;;;5068268;28;20047;-77
2021/08/26 05:40:10;;;;;;;10.00;4.75;;;;;;;;;;5075259;28;20078;-77
2021/08/26 05:42:36;;;;;;;9.20;4.82;;;;;;;;;;5068814;28;20418;-77
2021/08/26 05:45:03;;;;;;;9.65;4.57;;;;;;;;;;5066952;28;20056;-75
2021/08/26 05:47:29;;;;;;;8.82;4.63;;;;;;;;;;5068646;28;20024;-75
2021/08/26 05:49:56;;;;;;;10.05;4.55;;;;;;;;;;5058749;28;20040;-75
2021/08/26 05:52:22;;;;;;;9.55;4.80;;;;;;;;;;5068808;28;20027;-74
2021/08/26 05:54:48;;;;;;;8.57;4.28;;;;;;;;;;5068748;28;20173;-74
2021/08/26 05:57:14;;;;;;;12.98;5.07;;;;;;;;;;5067126;28;20079;-74
2021/08/26 05:59:40;;;;;;;11.68;4.40;;;;;;;;;;5067479;28;20376;-74
2021/08/26 06:02:06;;;;;;;14.35;4.93;;;;;;;;;;5081271;28;20028;-75
2021/08/26 06:04:32;;;;;;;11.65;4.85;;;;;;;;;;5070333;28;20017;-75
2021/08/26 06:06:58;;;;;;;9.73;4.80;;;;;;;;;;5071400;28;20512;-74
2021/08/26 06:09:24;;;;;;;8.30;4.35;;;;;;;;;;5072307;28;20060;-75
2021/08/26 06:11:50;;;;;;;10.65;5.07;;;;;;;;;;5071583;28;20021;-75
2021/08/26 06:14:16;;;;;;;10.07;4.90;;;;;;;;;;5071599;28;20031;-75
2021/08/26 06:16:42;;;;;;;12.00;4.20;;;;;;;;;;5070648;28;20115;-75
2021/08/26 06:19:08;;;;;;;8.35;4.60;;;;;;;;;;5069858;28;20074;-75
2021/08/26 06:21:34;;;;;;;8.65;4.38;;;;;;;;;;5071194;28;20497;-75
2021/08/26 06:24:05;;;;;;;9.40;4.00;;;;;;;;;;5065873;28;20439;-74
2021/08/26 06:26:31;;;;;;;12.10;4.13;;;;;;;;;;5068271;28;20463;-75
2021/08/26 06:28:57;;;;;;;11.18;5.07;;;;;;;;;;5072166;28;20456;-75
2021/08/26 06:31:23;;;;;;;11.82;4.70;;;;;;;;;;5072187;28;20383;-74
2021/08/26 06:33:50;;;;;;;9.02;4.55;;;;;;;;;;5072148;28;20028;-75
2021/08/26 06:36:16;;;;;;;9.68;4.47;;;;;;;;;;5070070;28;20044;-75
2021/08/26 06:38:42;;;;;;;10.73;4.05;;;;;;;;;;5078951;28;20029;-74
2021/08/26 06:41:09;;;;;;;10.93;4.20;;;;;;;;;;5070168;28;20017;-75
2021/08/26 06:43:35;;;;;;;9.55;4.32;;;;;;;;;;5067355;28;20112;-75
2021/08/26 06:46:01;;;;;;;10.32;4.40;;;;;;;;;;5071128;28;20028;-75
2021/08/26 06:48:27;;;;;;;16.30;5.07;;;;;;;;;;5069601;28;20024;-75
2021/08/26 06:50:53;;;;;;;7.82;4.53;;;;;;;;;;5070512;28;20115;-75
2021/08/26 06:53:19;;;;;;;7.63;4.20;;;;;;;;;;5071479;28;20048;-75
2021/08/26 06:55:45;;;;;;;10.35;4.13;;;;;;;;;;5071394;28;20103;-75
2021/08/26 06:58:11;;;;;;;11.23;4.55;;;;;;;;;;5071922;28;20035;-75
2021/08/26 07:00:37;;;;;;;7.70;4.32;;;;;;;;;;5072059;28;20025;-74
2021/08/26 07:03:03;;;;;;;10.85;4.13;;;;;;;;;;5071811;28;20028;-75
2021/08/26 07:05:29;;;;;;;9.95;3.70;;;;;;;;;;5069860;28;20123;-75
2021/08/26 07:07:55;;;;;;;14.30;4.07;;;;;;;;;;5071311;28;20021;-75
2021/08/26 07:10:21;;;;;;;9.13;3.67;;;;;;;;;;5069676;28;20463;-74
2021/08/26 07:12:48;;;;;;;7.88;3.78;;;;;;;;;;5078632;28;20029;-74
2021/08/26 07:15:14;;;;;;;8.35;4.03;;;;;;;;;;5069150;28;20039;-74
2021/08/26 07:17:41;;;;;;;10.77;3.92;;;;;;;;;;5071078;28;20024;-74
2021/08/26 07:20:09;;;;;;;8.07;3.83;;;;;;;;;;5069729;28;20028;-75
2021/08/26 07:22:35;;;;;;;13.85;3.83;;;;;;;;;;5070190;28;20112;-75
2021/08/26 07:25:01;;;;;;;9.93;4.82;;;;;;;;;;5076289;28;20556;-74
2021/08/26 07:27:27;;;;;;;11.43;3.97;;;;;;;;;;5069558;28;20064;-75
2021/08/26 07:29:53;;;;;;;14.18;4.28;;;;;;;;;;5069548;28;20016;-75
2021/08/26 07:32:19;;;;;;;13.45;5.05;;;;;;;;;;5070944;28;20392;-74
2021/08/26 07:34:45;;;;;;;11.35;4.32;;;;;;;;;;5069247;28;20016;-74
2021/08/26 07:37:12;;;;;;;12.93;4.72;;;;;;;;;;5070705;28;20028;-76
2021/08/26 07:39:38;;;;;;;14.90;4.70;;;;;;;;;;5070546;28;20021;-75
2021/08/26 07:42:04;;;;;;;11.02;4.82;;;;;;;;;;5070537;28;20024;-75
2021/08/26 07:44:30;;;;;;;18.02;4.85;;;;;;;;;;5069680;28;20045;-75
2021/08/26 07:46:56;;;;;;;12.13;4.07;;;;;;;;;;5060187;28;20039;-75
2021/08/26 07:49:22;;;;;;;13.98;5.07;;;;;;;;;;5072633;28;20024;-75
2021/08/26 07:51:48;;;;;;;11.68;5.38;;;;;;;;;;5074013;28;20044;-75
2021/08/26 07:54:14;;;;;;;17.70;4.85;;;;;;;;;;5073393;28;20549;-75
2021/08/26 07:56:40;;;;;;;10.98;4.38;;;;;;;;;;5073566;28;20040;-75
2021/08/26 07:59:06;;;;;;;12.38;4.68;;;;;;;;;;5073710;28;20021;-75
2021/08/26 08:01:32;;;;;;;9.45;4.22;;;;;;;;;;5072341;28;20043;-75
2021/08/26 08:03:58;;;;;;;10.52;4.70;;;;;;;;;;5072247;28;20025;-75
2021/08/26 08:06:24;;;;;;;10.43;3.90;;;;;;;;;;5072148;28;20020;-75
2021/08/26 08:08:50;;;;;;;12.07;4.30;;;;;;;;;;5073374;28;20070;-75
2021/08/26 08:11:17;;;;;;;9.70;3.83;;;;;;;;;;5073776;28;20365;-75
2021/08/26 08:13:43;;;;;;;9.88;4.20;;;;;;;;;;5072275;28;20023;-75
2021/08/26 08:16:10;;;;;;;11.90;4.53;;;;;;;;;;5071852;28;20119;-75
2021/08/26 08:18:37;;;;;;;7.63;3.70;;;;;;;;;;5073244;28;20025;-75
2021/08/26 08:21:03;;;;;;;12.90;4.63;;;;;;;;;;5073456;28;20029;-75
2021/08/26 08:23:29;;;;;;;8.63;4.10;;;;;;;;;;5072115;28;20044;-75
2021/08/26 08:25:55;;;;;;;11.27;4.05;;;;;;;;;;5072508;28;20081;-75
2021/08/26 08:28:21;;;;;;;7.88;3.72;;;;;;;;;;5073047;28;20448;-75
2021/08/26 08:30:48;;;;;;;7.90;3.60;;;;;;;;;;5073158;28;20020;-75
2021/08/26 08:33:14;;;;;;;8.43;3.95;;;;;;;;;;5072994;28;20375;-76
2021/08/26 08:35:40;;;;;;;9.02;3.95;;;;;;;;;;5073087;28;20504;-75
2021/08/26 08:38:06;;;;;;;8.18;3.72;;;;;;;;;;5071535;28;20090;-76
2021/08/26 08:40:33;;;;;;;11.07;3.42;;;;;;;;;;5073070;28;20024;-75
2021/08/26 08:42:59;;;;;;;8.30;3.60;;;;;;;;;;5072965;28;20017;-75
2021/08/26 08:45:25;;;;;;;7.80;3.25;;;;;;;;;;5071550;28;20388;-75
2021/08/26 08:47:52;;;;;;;6.95;3.28;;;;;;;;;;5072835;28;20104;-75
2021/08/26 08:50:21;;;;;;;8.85;3.63;;;;;;;;;;5069368;28;20017;-75
2021/08/26 08:52:48;;;;;;;9.07;3.85;;;;;;;;;;5070392;28;20045;-75
2021/08/26 08:55:16;;;;;;;8.20;3.83;;;;;;;;;;5071910;28;20463;-75
2021/08/26 08:57:43;;;;;;;7.50;3.20;;;;;;;;;;5072743;28;20054;-75
2021/08/26 09:00:19;;;;;;;8.32;3.55;;;;;;;;;;5072742;28;20017;-75
2021/08/26 09:02:46;;;;;;;7.30;3.95;;;;;;;;;;5072756;28;20024;-75
2021/08/26 09:05:12;;;;;;;8.10;3.90;;;;;;;;;;5071205;28;20119;-75
2021/08/26 09:07:38;;;;;;;10.35;3.90;;;;;;;;;;5071197;28;20024;-76
2021/08/26 09:10:05;;;;;;;8.15;4.10;;;;;;;;;;5070961;28;20032;-75
2021/08/26 09:12:41;;;;;;;6.97;3.38;;;;;;;;;;5070956;28;20020;-75
2021/08/26 09:15:11;;;;;;;6.85;3.17;;;;;;;;;;5070861;28;20060;-75
2021/08/26 09:17:37;;;;;;;7.07;3.42;;;;;;;;;;5072273;28;20498;-75
2021/08/26 09:20:04;;;;;;;7.97;3.53;;;;;;;;;;5072109;28;20044;-75
2021/08/26 09:22:31;;;;;;;9.00;3.42;;;;;;;;;;5070803;28;20025;-75
2021/08/26 09:24:58;;;;;;;5.22;2.78;;;;;;;;;;5070862;28;20471;-75
2021/08/26 09:27:36;;;;;;;8.85;3.60;;;;;;;;;;5071998;28;20268;-75
2021/08/26 09:30:12;;;;;;;8.23;3.65;;;;;;;;;;5070957;28;20380;-75
2021/08/26 09:32:49;;;;;;;7.32;3.80;;;;;;;;;;5070834;28;20031;-75
2021/08/26 09:35:22;;;;;;;7.72;3.45;;;;;;;;;;5070853;28;20040;-75
2021/08/26 09:37:55;;;;;;;7.60;3.83;;;;;;;;;;5071805;28;20082;-75
2021/08/26 09:40:23;;;;;;;6.45;3.42;;;;;;;;;;5070583;28;20021;-75
2021/08/26 09:42:59;;;;;;;14.68;3.50;;;;;;;;;;5069752;28;20537;-75
2021/08/26 09:45:27;;;;;;;7.57;3.00;;;;;;;;;;5084767;28;20021;-75
2021/08/26 09:48:00;;;;;;;7.00;3.25;;;;;;;;;;5070708;28;20027;-75
2021/08/26 09:50:41;;;;;;;12.45;3.95;;;;;;;;;;5061153;28;20017;-75
2021/08/26 09:53:08;;;;;;;6.82;3.50;;;;;;;;;;5069353;28;20036;-75
2021/08/26 09:55:52;;;;;;;7.15;3.50;;;;;;;;;;5070498;28;20101;-75
2021/08/26 09:58:21;;;;;;;9.38;3.20;;;;;;;;;;5061097;28;20048;-75
2021/08/26 10:00:47;;;;;;;7.03;2.97;;;;;;;;;;5070859;28;20029;-75
2021/08/26 10:03:15;;;;;;;10.13;3.58;;;;;;;;;;5070800;28;20024;-75
2021/08/26 10:05:43;;;;;;;7.63;3.35;;;;;;;;;;5070750;28;20383;-75
2021/08/26 10:08:10;;;;;;;7.72;3.58;;;;;;;;;;5070461;28;20594;-75
2021/08/26 10:10:36;;;;;;;9.60;3.33;;;;;;;;;;5070590;28;20035;-75
2021/08/26 10:13:03;;;;;;;6.05;3.28;;;;;;;;;;5071229;28;20100;-75
2021/08/26 10:15:29;;;;;;;8.60;3.22;;;;;;;;;;5070261;28;20060;-75
2021/08/26 10:17:55;;;;;;;7.28;3.00;;;;;;;;;;5071671;28;20107;-75
2021/08/26 10:20:22;;;;;;;6.53;3.05;;;;;;;;;;5071638;28;20020;-75
2021/08/26 10:22:48;;;;;;;8.75;3.28;;;;;;;;;;5071564;28;20375;-75
2021/08/26 10:25:15;;;;;;;9.88;3.00;;;;;;;;;;5070432;28;20024;-74
2021/08/26 10:27:41;;;;;;;7.25;2.85;;;;;;;;;;5071408;28;20061;-75
2021/08/26 10:30:07;;;;;;;8.18;2.92;;;;;;;;;;5071568;28;20166;-75
2021/08/26 10:32:33;;;;;;;9.88;3.30;;;;;;;;;;5071298;28;20166;-75
2021/08/26 10:35:08;;;;;;;8.10;3.17;;;;;;;;;;5071504;28;20028;-74
2021/08/26 10:37:54;;;;;;;6.28;3.17;;;;;;;;;;5069927;28;20025;-75
2021/08/26 10:40:27;;;;;;;7.63;3.10;;;;;;;;;;5071072;28;20016;-75
2021/08/26 10:42:54;;;;;;;10.52;2.83;;;;;;;;;;5071382;28;20544;-75
2021/08/26 10:45:34;;;;;;;9.57;3.25;;;;;;;;;;5070256;28;20037;-75
2021/08/26 10:48:01;;;;;;;11.15;3.53;;;;;;;;;;5070013;28;20472;-76
2021/08/26 10:50:39;;;;;;;8.27;3.63;;;;;;;;;;5074579;28;20056;-75
2021/08/26 10:53:23;;;;;;;7.53;2.83;;;;;;;;;;5074789;28;20399;-75
2021/08/26 10:55:53;;;;;;;6.55;2.92;;;;;;;;;;5073864;28;20039;-75
2021/08/26 10:58:23;;;;;;;6.40;3.00;;;;;;;;;;5073546;28;20024;-75
2021/08/26 11:00:50;;;;;;;8.05;3.40;;;;;;;;;;5073799;28;20029;-75
2021/08/26 11:03:34;;;;;;;8.30;3.20;;;;;;;;;;5073847;28;20030;-75
2021/08/26 11:06:28;;;;;;;7.78;3.72;;;;;;;;;;5074964;28;20025;-75
2021/08/26 11:09:12;;;;;;;6.88;3.45;;;;;;;;;;5073674;28;20423;-76
2021/08/26 11:11:40;;;;;;;11.68;3.40;;;;;;;;;;5074797;28;20103;-75
2021/08/26 11:14:06;;;;;;;8.48;3.20;;;;;;;;;;5074718;28;20044;-75
2021/08/26 11:16:33;;;;;;;6.00;2.60;;;;;;;;;;5073401;28;20491;-75
2021/08/26 11:19:19;;;;;;;6.10;3.00;;;;;;;;;;5074718;28;20021;-75
2021/08/26 11:21:46;;;;;;;8.93;3.70;;;;;;;;;;5074477;28;20547;-75
2021/08/26 11:24:26;;;;;;;6.95;2.92;;;;;;;;;;5073332;28;20020;-75
2021/08/26 11:26:59;;;;;;;5.43;2.42;;;;;;;;;;5074333;28;20405;-75
2021/08/26 11:29:25;;;;;;;5.57;2.75;;;;;;;;;;5074345;28;20048;-76
2021/08/26 11:31:54;;;;;;;5.85;2.65;;;;;;;;;;5073201;28;20043;-75
2021/08/26 11:34:20;;;;;;;7.57;3.60;;;;;;;;;;5074342;28;20032;-75
2021/08/26 11:36:55;;;;;;;6.03;3.10;;;;;;;;;;5073090;28;20037;-75
2021/08/26 11:39:21;;;;;;;7.97;3.00;;;;;;;;;;5073148;28;20024;-75
2021/08/26 11:41:47;;;;;;;6.30;2.92;;;;;;;;;;5069156;28;20028;-75
2021/08/26 11:44:14;;;;;;;6.38;3.55;;;;;;;;;;5069503;28;20543;-75
2021/08/26 11:46:41;;;;;;;7.85;2.90;;;;;;;;;;5069362;28;20120;-75
2021/08/26 11:49:07;;;;;;;6.25;2.97;;;;;;;;;;5053933;28;20578;-75
2021/08/26 11:51:33;;;;;;;8.23;3.90;;;;;;;;;;5054046;28;20385;-75
2021/08/26 11:54:19;;;;;;;6.55;3.58;;;;;;;;;;5069172;28;20055;-75
2021/08/26 11:56:46;;;;;;;7.03;3.30;;;;;;;;;;5069135;28;20369;-75
2021/08/26 11:59:32;;;;;;;6.47;3.13;;;;;;;;;;5053983;28;20465;-76
2021/08/26 12:02:13;;;;;;;6.05;3.08;;;;;;;;;;5069136;28;20411;-76
2021/08/26 12:04:39;;;;;;;6.28;2.70;;;;;;;;;;5068880;28;20475;-76
2021/08/26 12:07:05;;;;;;;5.93;3.20;;;;;;;;;;5069072;28;20063;-75
2021/08/26 12:09:32;;;;;;;5.93;2.55;;;;;;;;;;5053734;28;20032;-76
2021/08/26 12:12:07;;;;;;;7.45;2.95;;;;;;;;;;5069316;28;20079;-74
2021/08/26 12:14:36;;;;;;;6.50;3.00;;;;;;;;;;5053615;28;20032;-75
2021/08/26 12:17:17;;;;;;;5.32;2.67;;;;;;;;;;5066886;28;20562;-75
2021/08/26 12:19:43;;;;;;;7.15;3.25;;;;;;;;;;5071117;28;20020;-75
2021/08/26 12:22:12;;;;;;;7.00;2.70;;;;;;;;;;5065533;28;20081;-75
2021/08/26 12:24:49;;;;;;;8.63;2.85;;;;;;;;;;5072950;28;20026;-75
2021/08/26 12:27:15;;;;;;;8.40;2.97;;;;;;;;;;5073917;28;20383;-75
2021/08/26 12:29:42;;;;;;;7.25;3.05;;;;;;;;;;5071937;28;20033;-75
2021/08/26 12:32:24;;;;;;;7.82;2.90;;;;;;;;;;5073212;28;20418;-75
2021/08/26 12:34:50;;;;;;;6.57;3.33;;;;;;;;;;5070613;28;20026;-74
2021/08/26 12:37:17;;;;;;;6.22;2.90;;;;;;;;;;5071125;28;20055;-74
2021/08/26 12:39:43;;;;;;;7.85;2.90;;;;;;;;;;5071494;28;20027;-74
2021/08/26 12:42:16;;;;;;;8.55;2.80;;;;;;;;;;5072692;28;20361;-75
2021/08/26 12:44:43;;;;;;;8.52;2.90;;;;;;;;;;5072116;28;20016;-74
2021/08/26 12:47:12;;;;;;;8.48;3.20;;;;;;;;;;5062812;28;20025;-76
2021/08/26 12:49:45;;;;;;;7.72;3.25;;;;;;;;;;5060768;28;20029;-75
2021/08/26 12:52:12;;;;;;;7.70;2.92;;;;;;;;;;5069929;28;20063;-75
2021/08/26 12:54:41;;;;;;;9.98;2.92;;;;;;;;;;5070237;28;20557;-75
2021/08/26 12:57:21;;;;;;;8.57;3.60;;;;;;;;;;5071070;28;20514;-76
2021/08/26 12:59:47;;;;;;;10.30;3.10;;;;;;;;;;5088419;28;20017;-75
2021/08/26 13:02:14;;;;;;;8.32;2.97;;;;;;;;;;5072671;28;20402;-75
2021/08/26 13:04:41;;;;;;;8.77;3.33;;;;;;;;;;5088243;28;20024;-75
2021/08/26 13:07:17;;;;;;;12.02;2.70;;;;;;;;;;5072585;28;20031;-75
2021/08/26 13:09:43;;;;;;;9.38;3.25;;;;;;;;;;5072416;28;20017;-76
2021/08/26 13:12:10;;;;;;;6.65;3.00;;;;;;;;;;5071888;28;20375;-75
2021/08/26 13:14:38;;;;;;;8.93;2.80;;;;;;;;;;5088120;28;20021;-75
2021/08/26 13:17:14;;;;;;;7.85;2.75;;;;;;;;;;5087815;28;20036;-75
2021/08/26 13:19:40;;;;;;;7.45;3.35;;;;;;;;;;5087830;28;20482;-75
2021/08/26 13:22:20;;;;;;;7.85;3.05;;;;;;;;;;5087842;28;20486;-75
2021/08/26 13:24:46;;;;;;;6.63;2.85;;;;;;;;;;5087816;28;20422;-75
2021/08/26 13:27:12;;;;;;;7.00;3.30;;;;;;;;;;5071847;28;20031;-75
2021/08/26 13:29:39;;;;;;;7.00;3.20;;;;;;;;;;5071849;28;20514;-75
2021/08/26 13:32:05;;;;;;;6.53;3.50;;;;;;;;;;5072292;28;20361;-75
2021/08/26 13:34:31;;;;;;;7.85;3.60;;;;;;;;;;5087771;28;20068;-76
2021/08/26 13:36:57;;;;;;;9.27;2.83;;;;;;;;;;5070708;28;20040;-75
2021/08/26 13:39:23;;;;;;;6.90;3.22;;;;;;;;;;5070831;28;20021;-75
2021/08/26 13:41:49;;;;;;;6.90;3.55;;;;;;;;;;5072275;28;20053;-75
2021/08/26 13:44:15;;;;;;;7.20;3.00;;;;;;;;;;5087441;28;20048;-75
2021/08/26 13:46:43;;;;;;;6.40;3.20;;;;;;;;;;5072033;28;20497;-75
2021/08/26 13:49:09;;;;;;;6.55;2.97;;;;;;;;;;5071925;28;20028;-75
2021/08/26 13:51:35;;;;;;;6.15;3.25;;;;;;;;;;5070535;28;20046;-75
2021/08/26 13:54:01;;;;;;;5.68;2.90;;;;;;;;;;5071671;28;20040;-75
2021/08/26 13:56:27;;;;;;;7.40;2.70;;;;;;;;;;5071856;28;20046;-75
2021/08/26 13:58:54;;;;;;;10.45;3.42;;;;;;;;;;5087053;28;20056;-75
2021/08/26 14:01:21;;;;;;;6.55;2.97;;;;;;;;;;5070343;28;20123;-75
2021/08/26 14:03:47;;;;;;;8.85;3.05;;;;;;;;;;5070577;28;20029;-75
2021/08/26 14:06:13;;;;;;;6.78;3.25;;;;;;;;;;5071948;28;20024;-75
2021/08/26 14:08:39;;;;;;;7.10;3.22;;;;;;;;;;5087437;28;20031;-75
2021/08/26 14:11:05;;;;;;;6.65;3.28;;;;;;;;;;5071791;28;20029;-75
2021/08/26 14:13:32;;;;;;;5.82;3.15;;;;;;;;;;5087589;28;20414;-75
2021/08/26 14:15:58;;;;;;;6.38;3.03;;;;;;;;;;5087329;28;20032;-76
2021/08/26 14:18:24;;;;;;;9.70;3.22;;;;;;;;;;5070084;28;20391;-76
2021/08/26 14:20:50;;;;;;;17.75;3.40;;;;;;;;;;5070118;28;20024;-73
2021/08/26 14:23:16;;;;;;;11.43;3.97;;;;;;;;;;5070538;28;20478;-74
2021/08/26 14:25:42;;;;;;;12.75;4.93;;;;;;;;;;5091220;28;20024;-73
2021/08/26 14:28:08;;;;;;;9.77;4.47;;;;;;;;;;5073644;28;20025;-74
2021/08/26 14:30:34;;;;;;;10.25;4.78;;;;;;;;;;5074977;28;20494;-74
2021/08/26 14:33:00;;;;;;;9.32;4.47;;;;;;;;;;5075666;28;20060;-73
2021/08/26 14:35:26;;;;;;;14.82;4.97;;;;;;;;;;5075137;28;20438;-73
2021/08/26 14:37:52;;;;;;;12.90;5.25;;;;;;;;;;5075365;28;20025;-74
2021/08/26 14:40:19;;;;;;;13.52;4.97;;;;;;;;;;5069915;28;20040;-73
2021/08/26 14:42:45;;;;;;;14.48;4.47;;;;;;;;;;5055373;28;20032;-74